sensor_id;sensor_type;location;lat;lon;timestamp;pressure;altitude;pressure_sealevel;temperature;humidity
82160;BME280;71734;50.876;7.372;2023-11-18T00:02:10;99907.97;;;3.75;96.71
82160;BME280;71734;50.876;7.372;2023-11-18T00:04:38;99902.78;;;3.88;96.54
82160;BME280;71734;50.876;7.372;2023-11-18T00:07:05;99892.22;;;3.69;96.33
82160;BME280;71734;50.876;7.372;2023-11-18T00:09:31;99897.47;;;3.69;96.74
82160;BME280;71734;50.876;7.372;2023-11-18T00:11:57;99901.75;;;3.55;96.70
82160;BME280;71734;50.876;7.372;2023-11-18T00:14:24;99902.69;;;3.65;97.23
82160;BME280;71734;50.876;7.372;2023-11-18T00:16:50;99902.66;;;3.60;97.18
82160;BME280;71734;50.876;7.372;2023-11-18T00:19:17;99897.44;;;3.63;96.67
82160;BME280;71734;50.876;7.372;2023-11-18T00:21:44;99900.13;;;3.74;97.42
82160;BME280;71734;50.876;7.372;2023-11-18T00:24:11;99908.81;;;3.67;96.53
82160;BME280;71734;50.876;7.372;2023-11-18T00:26:38;99905.22;;;3.48;96.66
82160;BME280;71734;50.876;7.372;2023-11-18T00:29:05;99907.91;;;3.60;97.03
82160;BME280;71734;50.876;7.372;2023-11-18T00:31:31;99915.75;;;3.57;96.83
82160;BME280;71734;50.876;7.372;2023-11-18T00:33:57;99896.59;;;3.72;97.19
82160;BME280;71734;50.876;7.372;2023-11-18T00:36:24;99905.41;;;3.88;96.26
82160;BME280;71734;50.876;7.372;2023-11-18T00:38:53;99910.72;;;4.09;94.40
82160;BME280;71734;50.876;7.372;2023-11-18T00:41:19;99908.06;;;4.00;93.83
82160;BME280;71734;50.876;7.372;2023-11-18T00:43:46;99908.03;;;3.86;92.94
82160;BME280;71734;50.876;7.372;2023-11-18T00:46:13;99909.75;;;3.84;95.24
82160;BME280;71734;50.876;7.372;2023-11-18T00:48:39;99902.72;;;3.66;94.66
82160;BME280;71734;50.876;7.372;2023-11-18T00:51:06;99902.72;;;3.69;95.35
82160;BME280;71734;50.876;7.372;2023-11-18T00:53:32;99916.72;;;3.76;94.01
82160;BME280;71734;50.876;7.372;2023-11-18T00:56:00;99910.59;;;3.75;95.13
82160;BME280;71734;50.876;7.372;2023-11-18T00:58:27;99906.25;;;3.74;95.73
82160;BME280;71734;50.876;7.372;2023-11-18T01:00:54;99907.09;;;3.72;94.50
82160;BME280;71734;50.876;7.372;2023-11-18T01:03:20;99902.66;;;3.54;94.94
82160;BME280;71734;50.876;7.372;2023-11-18T01:05:46;99906.16;;;3.59;96.13
82160;BME280;71734;50.876;7.372;2023-11-18T01:08:13;99893.94;;;3.61;96.32
82160;BME280;71734;50.876;7.372;2023-11-18T01:10:39;99902.59;;;3.48;97.04
82160;BME280;71734;50.876;7.372;2023-11-18T01:13:07;99908.75;;;3.50;96.59
82160;BME280;71734;50.876;7.372;2023-11-18T01:15:34;99900.97;;;3.71;96.57
82160;BME280;71734;50.876;7.372;2023-11-18T01:18:00;99899.13;;;3.55;97.58
82160;BME280;71734;50.876;7.372;2023-11-18T01:20:27;99899.84;;;3.24;97.85
82160;BME280;71734;50.876;7.372;2023-11-18T01:22:54;99902.47;;;3.25;97.93
82160;BME280;71734;50.876;7.372;2023-11-18T01:25:20;99896.47;;;3.45;98.73
82160;BME280;71734;50.876;7.372;2023-11-18T01:27:47;99898.31;;;3.62;97.34
82160;BME280;71734;50.876;7.372;2023-11-18T01:30:15;99903.53;;;3.59;98.02
82160;BME280;71734;50.876;7.372;2023-11-18T01:32:42;99912.34;;;3.70;97.15
82160;BME280;71734;50.876;7.372;2023-11-18T01:35:09;99907.97;;;3.69;96.75
82160;BME280;71734;50.876;7.372;2023-11-18T01:37:38;99918.47;;;3.75;96.85
82160;BME280;71734;50.876;7.372;2023-11-18T01:40:05;99902.66;;;3.60;96.34
82160;BME280;71734;50.876;7.372;2023-11-18T01:42:33;99913.09;;;3.51;97.08
82160;BME280;71734;50.876;7.372;2023-11-18T01:44:59;99928.06;;;3.75;96.67
82160;BME280;71734;50.876;7.372;2023-11-18T01:47:30;99938.53;;;3.66;96.28
82160;BME280;71734;50.876;7.372;2023-11-18T01:49:58;99927.16;;;3.68;97.55
82160;BME280;71734;50.876;7.372;2023-11-18T01:52:25;99938.50;;;3.64;96.72
82160;BME280;71734;50.876;7.372;2023-11-18T01:54:53;99936.66;;;3.48;97.97
82160;BME280;71734;50.876;7.372;2023-11-18T01:57:20;99932.34;;;3.59;98.10
82160;BME280;71734;50.876;7.372;2023-11-18T01:59:47;99939.34;;;3.54;98.75
82160;BME280;71734;50.876;7.372;2023-11-18T02:02:13;99928.00;;;3.61;96.79
82160;BME280;71734;50.876;7.372;2023-11-18T02:04:41;99930.63;;;3.58;97.58
82160;BME280;71734;50.876;7.372;2023-11-18T02:07:10;99928.00;;;3.61;97.81
82160;BME280;71734;50.876;7.372;2023-11-18T02:09:40;99928.91;;;3.71;96.04
82160;BME280;71734;50.876;7.372;2023-11-18T02:12:16;99923.63;;;3.60;96.34
82160;BME280;71734;50.876;7.372;2023-11-18T02:14:47;99915.81;;;3.71;97.34
82160;BME280;71734;50.876;7.372;2023-11-18T02:17:17;99925.41;;;3.64;96.38
82160;BME280;71734;50.876;7.372;2023-11-18T02:19:45;99919.25;;;3.58;96.68
82160;BME280;71734;50.876;7.372;2023-11-18T02:22:12;99921.84;;;3.53;97.62
82160;BME280;71734;50.876;7.372;2023-11-18T02:24:39;99911.41;;;3.61;97.41
82160;BME280;71734;50.876;7.372;2023-11-18T02:27:08;99905.31;;;3.62;97.65
82160;BME280;71734;50.876;7.372;2023-11-18T02:29:38;99906.00;;;3.35;98.21
82160;BME280;71734;50.876;7.372;2023-11-18T02:32:11;99902.63;;;3.51;98.34
82160;BME280;71734;50.876;7.372;2023-11-18T02:34:48;99900.00;;;3.51;96.73
82160;BME280;71734;50.876;7.372;2023-11-18T02:37:16;99899.19;;;3.61;96.60
82160;BME280;71734;50.876;7.372;2023-11-18T02:39:45;99908.69;;;3.47;97.08
82160;BME280;71734;50.876;7.372;2023-11-18T02:42:17;99907.91;;;3.63;97.25
82160;BME280;71734;50.876;7.372;2023-11-18T02:44:47;99916.59;;;3.50;96.49
82160;BME280;71734;50.876;7.372;2023-11-18T02:47:15;99906.13;;;3.55;97.46
82160;BME280;71734;50.876;7.372;2023-11-18T02:49:42;99907.03;;;3.60;96.13
82160;BME280;71734;50.876;7.372;2023-11-18T02:52:08;99909.63;;;3.55;96.51
82160;BME280;71734;50.876;7.372;2023-11-18T02:54:35;99900.84;;;3.44;97.34
82160;BME280;71734;50.876;7.372;2023-11-18T02:57:01;99905.25;;;3.50;96.44
82160;BME280;71734;50.876;7.372;2023-11-18T02:59:29;99904.34;;;3.46;98.50
82160;BME280;71734;50.876;7.372;2023-11-18T03:01:56;99892.16;;;3.54;97.25
82160;BME280;71734;50.876;7.372;2023-11-18T03:04:22;99887.81;;;3.61;97.04
82160;BME280;71734;50.876;7.372;2023-11-18T03:06:49;99885.19;;;3.56;96.44
82160;BME280;71734;50.876;7.372;2023-11-18T03:09:16;99883.41;;;3.55;97.62
82160;BME280;71734;50.876;7.372;2023-11-18T03:11:43;99888.66;;;3.55;96.06
82160;BME280;71734;50.876;7.372;2023-11-18T03:14:10;99886.91;;;3.51;96.59
82160;BME280;71734;50.876;7.372;2023-11-18T03:16:38;99897.41;;;3.57;97.01
82160;BME280;71734;50.876;7.372;2023-11-18T03:19:05;99895.63;;;3.55;95.18
82160;BME280;71734;50.876;7.372;2023-11-18T03:21:35;99902.63;;;3.51;96.53
82160;BME280;71734;50.876;7.372;2023-11-18T03:24:04;99905.22;;;3.47;96.62
82160;BME280;71734;50.876;7.372;2023-11-18T03:26:31;99911.38;;;3.53;97.52
82160;BME280;71734;50.876;7.372;2023-11-18T03:28:58;99888.63;;;3.51;97.33
82160;BME280;71734;50.876;7.372;2023-11-18T03:31:24;99886.06;;;3.63;95.99
82160;BME280;71734;50.876;7.372;2023-11-18T03:33:52;99881.69;;;3.57;96.36
82160;BME280;71734;50.876;7.372;2023-11-18T03:36:19;99880.00;;;3.71;96.26
82160;BME280;71734;50.876;7.372;2023-11-18T03:38:46;99878.22;;;3.61;96.96
82160;BME280;71734;50.876;7.372;2023-11-18T03:41:13;99871.25;;;3.66;95.35
82160;BME280;71734;50.876;7.372;2023-11-18T03:43:39;99860.78;;;3.69;95.54
82160;BME280;71734;50.876;7.372;2023-11-18T03:46:06;99863.44;;;3.74;96.14
82160;BME280;71734;50.876;7.372;2023-11-18T03:48:32;99850.31;;;3.72;95.89
82160;BME280;71734;50.876;7.372;2023-11-18T03:51:01;99845.91;;;3.65;96.74
82160;BME280;71734;50.876;7.372;2023-11-18T03:53:28;99841.50;;;3.60;96.49
82160;BME280;71734;50.876;7.372;2023-11-18T03:55:55;99847.63;;;3.60;95.20
82160;BME280;71734;50.876;7.372;2023-11-18T03:58:21;99852.94;;;3.72;95.97
82160;BME280;71734;50.876;7.372;2023-11-18T04:00:47;99862.44;;;3.52;96.30
82160;BME280;71734;50.876;7.372;2023-11-18T04:03:14;99865.97;;;3.56;96.34
82160;BME280;71734;50.876;7.372;2023-11-18T04:05:40;99876.47;;;3.60;94.96
82160;BME280;71734;50.876;7.372;2023-11-18T04:08:08;99882.59;;;3.62;94.92
82160;BME280;71734;50.876;7.372;2023-11-18T04:10:34;99881.75;;;3.72;96.31
82160;BME280;71734;50.876;7.372;2023-11-18T04:13:01;99895.72;;;3.71;95.05
82160;BME280;71734;50.876;7.372;2023-11-18T04:15:27;99886.97;;;3.71;94.41
82160;BME280;71734;50.876;7.372;2023-11-18T04:17:54;99889.59;;;3.65;96.60
82160;BME280;71734;50.876;7.372;2023-11-18T04:20:20;99890.44;;;3.59;96.08
82160;BME280;71734;50.876;7.372;2023-11-18T04:22:47;99886.94;;;3.57;96.56
82160;BME280;71734;50.876;7.372;2023-11-18T04:25:14;99896.56;;;3.63;95.99
82160;BME280;71734;50.876;7.372;2023-11-18T04:27:41;99897.47;;;3.69;95.93
82160;BME280;71734;50.876;7.372;2023-11-18T04:30:08;99888.69;;;3.63;95.58
82160;BME280;71734;50.876;7.372;2023-11-18T04:32:34;99888.63;;;3.46;95.95
82160;BME280;71734;50.876;7.372;2023-11-18T04:35:01;99878.22;;;3.64;96.60
82160;BME280;71734;50.876;7.372;2023-11-18T04:37:32;99867.69;;;3.55;96.20
82160;BME280;71734;50.876;7.372;2023-11-18T04:39:58;99859.88;;;3.61;95.34
82160;BME280;71734;50.876;7.372;2023-11-18T04:42:26;99862.44;;;3.52;96.65
82160;BME280;71734;50.876;7.372;2023-11-18T04:44:54;99859.84;;;3.52;96.43
82160;BME280;71734;50.876;7.372;2023-11-18T04:47:21;99864.25;;;3.64;95.72
82160;BME280;71734;50.876;7.372;2023-11-18T04:49:47;99852.84;;;3.50;95.59
82160;BME280;71734;50.876;7.372;2023-11-18T04:52:14;99847.56;;;3.44;94.86
82160;BME280;71734;50.876;7.372;2023-11-18T04:54:40;99844.09;;;3.49;96.21
82160;BME280;71734;50.876;7.372;2023-11-18T04:57:06;99844.94;;;3.42;94.70
82160;BME280;71734;50.876;7.372;2023-11-18T04:59:35;99837.91;;;3.32;94.86
82160;BME280;71734;50.876;7.372;2023-11-18T05:02:02;99834.44;;;3.36;95.30
82160;BME280;71734;50.876;7.372;2023-11-18T05:04:28;99826.59;;;3.44;95.80
82160;BME280;71734;50.876;7.372;2023-11-18T05:06:54;99816.13;;;3.42;96.09
82160;BME280;71734;50.876;7.372;2023-11-18T05:09:21;99816.06;;;3.35;95.90
82160;BME280;71734;50.876;7.372;2023-11-18T05:11:47;99816.94;;;3.35;96.11
82160;BME280;71734;50.876;7.372;2023-11-18T05:14:14;99815.28;;;3.46;95.92
82160;BME280;71734;50.876;7.372;2023-11-18T05:16:43;99817.00;;;3.38;95.15
82160;BME280;71734;50.876;7.372;2023-11-18T05:19:09;99807.41;;;3.45;95.86
82160;BME280;71734;50.876;7.372;2023-11-18T05:21:35;99798.63;;;3.35;95.16
82160;BME280;71734;50.876;7.372;2023-11-18T05:24:02;99796.91;;;3.37;95.43
82160;BME280;71734;50.876;7.372;2023-11-18T05:26:28;99795.22;;;3.56;94.28
82160;BME280;71734;50.876;7.372;2023-11-18T05:28:55;99804.81;;;3.46;95.24
82160;BME280;71734;50.876;7.372;2023-11-18T05:31:21;99795.16;;;3.39;95.45
82160;BME280;71734;50.876;7.372;2023-11-18T05:33:49;99796.91;;;3.34;94.41
82160;BME280;71734;50.876;7.372;2023-11-18T05:36:20;99801.22;;;3.26;95.23
82160;BME280;71734;50.876;7.372;2023-11-18T05:38:52;99787.22;;;3.27;95.04
82160;BME280;71734;50.876;7.372;2023-11-18T05:41:19;99780.22;;;3.23;93.71
82160;BME280;71734;50.876;7.372;2023-11-18T05:43:53;99781.88;;;3.03;95.64
82160;BME280;71734;50.876;7.372;2023-11-18T05:46:22;99786.25;;;3.01;96.43
82160;BME280;71734;50.876;7.372;2023-11-18T05:48:52;99785.50;;;3.29;95.26
82160;BME280;71734;50.876;7.372;2023-11-18T05:51:20;99780.28;;;3.32;92.90
82160;BME280;71734;50.876;7.372;2023-11-18T05:53:47;99779.34;;;3.16;94.25
82160;BME280;71734;50.876;7.372;2023-11-18T05:56:15;99776.78;;;3.25;94.88
82160;BME280;71734;50.876;7.372;2023-11-18T05:58:42;99780.22;;;3.17;95.37
82160;BME280;71734;50.876;7.372;2023-11-18T06:01:09;99783.75;;;3.25;95.15
82160;BME280;71734;50.876;7.372;2023-11-18T06:03:36;99766.22;;;3.12;94.26
82160;BME280;71734;50.876;7.372;2023-11-18T06:06:06;99768.00;;;3.17;95.66
82160;BME280;71734;50.876;7.372;2023-11-18T06:08:33;99768.88;;;3.19;95.59
82160;BME280;71734;50.876;7.372;2023-11-18T06:10:59;99775.78;;;3.10;96.28
82160;BME280;71734;50.876;7.372;2023-11-18T06:13:30;99779.28;;;3.10;95.87
82160;BME280;71734;50.876;7.372;2023-11-18T06:15:57;99776.66;;;3.06;95.64
82160;BME280;71734;50.876;7.372;2023-11-18T06:18:24;99774.03;;;3.04;96.62
82160;BME280;71734;50.876;7.372;2023-11-18T06:20:50;99773.16;;;3.04;97.40
82160;BME280;71734;50.876;7.372;2023-11-18T06:23:18;99770.50;;;2.96;97.34
82160;BME280;71734;50.876;7.372;2023-11-18T06:25:46;99768.00;;;3.19;97.69
82160;BME280;71734;50.876;7.372;2023-11-18T06:28:13;99769.75;;;3.17;97.30
82160;BME280;71734;50.876;7.372;2023-11-18T06:30:40;99767.09;;;3.12;98.14
82160;BME280;71734;50.876;7.372;2023-11-18T06:33:07;99761.00;;;3.15;98.07
82160;BME280;71734;50.876;7.372;2023-11-18T06:35:33;99754.91;;;3.16;97.69
82160;BME280;71734;50.876;7.372;2023-11-18T06:38:00;99750.47;;;3.06;98.35
82160;BME280;71734;50.876;7.372;2023-11-18T06:40:29;99752.28;;;3.16;98.45
82160;BME280;71734;50.876;7.372;2023-11-18T06:42:55;99757.50;;;3.16;98.52
82160;BME280;71734;50.876;7.372;2023-11-18T06:45:27;99748.84;;;3.29;97.12
82160;BME280;71734;50.876;7.372;2023-11-18T06:47:54;99755.84;;;3.33;98.13
82160;BME280;71734;50.876;7.372;2023-11-18T06:50:21;99761.94;;;3.31;97.97
82160;BME280;71734;50.876;7.372;2023-11-18T06:52:49;99751.50;;;3.38;98.35
82160;BME280;71734;50.876;7.372;2023-11-18T06:55:16;99748.00;;;3.44;98.04
82160;BME280;71734;50.876;7.372;2023-11-18T06:57:44;99740.13;;;3.33;98.05
82160;BME280;71734;50.876;7.372;2023-11-18T07:00:12;99736.66;;;3.37;98.83
82160;BME280;71734;50.876;7.372;2023-11-18T07:02:39;99754.13;;;3.38;98.40
82160;BME280;71734;50.876;7.372;2023-11-18T07:05:06;99762.84;;;3.43;98.99
82160;BME280;71734;50.876;7.372;2023-11-18T07:07:33;99775.09;;;3.49;98.17
82160;BME280;71734;50.876;7.372;2023-11-18T07:09:59;99783.84;;;3.46;99.03
82160;BME280;71734;50.876;7.372;2023-11-18T07:12:26;99782.13;;;3.54;98.12
82160;BME280;71734;50.876;7.372;2023-11-18T07:14:53;99777.75;;;3.56;98.57
82160;BME280;71734;50.876;7.372;2023-11-18T07:17:20;99779.50;;;3.63;97.54
82160;BME280;71734;50.876;7.372;2023-11-18T07:19:46;99783.91;;;3.70;96.58
82160;BME280;71734;50.876;7.372;2023-11-18T07:22:12;99774.25;;;3.60;97.70
82160;BME280;71734;50.876;7.372;2023-11-18T07:24:40;99790.00;;;3.60;97.28
82160;BME280;71734;50.876;7.372;2023-11-18T07:27:06;99794.38;;;3.69;96.71
82160;BME280;71734;50.876;7.372;2023-11-18T07:29:36;99788.28;;;3.73;97.59
82160;BME280;71734;50.876;7.372;2023-11-18T07:32:04;99792.63;;;3.69;97.96
82160;BME280;71734;50.876;7.372;2023-11-18T07:34:32;99798.78;;;3.78;97.52
82160;BME280;71734;50.876;7.372;2023-11-18T07:37:03;99794.41;;;3.70;97.40
82160;BME280;71734;50.876;7.372;2023-11-18T07:39:30;99796.13;;;3.76;97.63
82160;BME280;71734;50.876;7.372;2023-11-18T07:42:09;99795.28;;;3.74;98.74
82160;BME280;71734;50.876;7.372;2023-11-18T07:44:36;99789.16;;;3.87;97.20
82160;BME280;71734;50.876;7.372;2023-11-18T07:47:05;99797.03;;;3.87;97.74
82160;BME280;71734;50.876;7.372;2023-11-18T07:49:31;99802.25;;;3.75;97.89
82160;BME280;71734;50.876;7.372;2023-11-18T07:51:58;99794.41;;;3.73;98.94
82160;BME280;71734;50.876;7.372;2023-11-18T07:54:24;99782.16;;;3.72;99.13
82160;BME280;71734;50.876;7.372;2023-11-18T07:56:52;99769.94;;;3.74;99.80
82160;BME280;71734;50.876;7.372;2023-11-18T07:59:19;99762.94;;;3.70;99.68
82160;BME280;71734;50.876;7.372;2023-11-18T08:01:45;99764.69;;;3.65;100.00
82160;BME280;71734;50.876;7.372;2023-11-18T08:04:13;99768.19;;;3.70;100.00
82160;BME280;71734;50.876;7.372;2023-11-18T08:06:40;99765.56;;;3.80;100.00
82160;BME280;71734;50.876;7.372;2023-11-18T08:09:08;99759.47;;;3.90;99.45
82160;BME280;71734;50.876;7.372;2023-11-18T08:11:38;99759.50;;;3.94;99.17
82160;BME280;71734;50.876;7.372;2023-11-18T08:14:06;99762.13;;;3.94;99.71
82160;BME280;71734;50.876;7.372;2023-11-18T08:16:33;99749.00;;;3.94;99.79
82160;BME280;71734;50.876;7.372;2023-11-18T08:18:59;99757.72;;;4.04;99.57
82160;BME280;71734;50.876;7.372;2023-11-18T08:21:28;99754.25;;;4.08;99.81
82160;BME280;71734;50.876;7.372;2023-11-18T08:23:55;99752.53;;;4.24;98.70
82160;BME280;71734;50.876;7.372;2023-11-18T08:26:24;99766.47;;;4.24;98.32
82160;BME280;71734;50.876;7.372;2023-11-18T08:28:50;99760.38;;;4.22;99.09
82160;BME280;71734;50.876;7.372;2023-11-18T08:31:17;99756.00;;;4.24;99.62
82160;BME280;71734;50.876;7.372;2023-11-18T08:33:43;99761.25;;;4.33;98.45
82160;BME280;71734;50.876;7.372;2023-11-18T08:36:10;99767.38;;;4.31;99.14
82160;BME280;71734;50.876;7.372;2023-11-18T08:38:39;99767.38;;;4.34;99.26
82160;BME280;71734;50.876;7.372;2023-11-18T08:41:05;99763.84;;;4.36;99.21
82160;BME280;71734;50.876;7.372;2023-11-18T08:43:34;99760.38;;;4.42;98.79
82160;BME280;71734;50.876;7.372;2023-11-18T08:46:00;99752.50;;;4.43;99.78
82160;BME280;71734;50.876;7.372;2023-11-18T08:48:27;99754.22;;;4.58;98.46
82160;BME280;71734;50.876;7.372;2023-11-18T08:50:53;99760.34;;;4.52;99.02
82160;BME280;71734;50.876;7.372;2023-11-18T08:53:20;99755.97;;;4.63;97.59
82160;BME280;71734;50.876;7.372;2023-11-18T08:55:52;99765.59;;;4.58;99.25
82160;BME280;71734;50.876;7.372;2023-11-18T08:58:19;99755.97;;;4.57;98.87
82160;BME280;71734;50.876;7.372;2023-11-18T09:00:48;99759.47;;;4.62;100.00
82160;BME280;71734;50.876;7.372;2023-11-18T09:03:18;99761.22;;;4.63;99.84
82160;BME280;71734;50.876;7.372;2023-11-18T09:05:51;99759.47;;;4.72;99.86
82160;BME280;71734;50.876;7.372;2023-11-18T09:08:27;99753.34;;;4.80;99.70
82160;BME280;71734;50.876;7.372;2023-11-18T09:10:56;99759.44;;;4.78;99.57
82160;BME280;71734;50.876;7.372;2023-11-18T09:13:24;99741.06;;;4.79;100.00
82160;BME280;71734;50.876;7.372;2023-11-18T09:15:54;99747.19;;;4.84;100.00
82160;BME280;71734;50.876;7.372;2023-11-18T09:18:21;99756.81;;;4.87;99.07
82160;BME280;71734;50.876;7.372;2023-11-18T09:20:47;99754.16;;;4.90;99.39
82160;BME280;71734;50.876;7.372;2023-11-18T09:23:14;99753.31;;;4.92;98.90
82160;BME280;71734;50.876;7.372;2023-11-18T09:25:41;99741.03;;;4.93;99.10
82160;BME280;71734;50.876;7.372;2023-11-18T09:28:14;99748.03;;;4.95;98.62
82160;BME280;71734;50.876;7.372;2023-11-18T09:30:41;99745.41;;;4.97;99.87
82160;BME280;71734;50.876;7.372;2023-11-18T09:33:16;99746.25;;;5.06;99.40
82160;BME280;71734;50.876;7.372;2023-11-18T09:35:51;99741.88;;;5.04;98.42
82160;BME280;71734;50.876;7.372;2023-11-18T09:38:21;99740.13;;;5.03;99.91
82160;BME280;71734;50.876;7.372;2023-11-18T09:40:49;99734.81;;;5.15;98.64
82160;BME280;71734;50.876;7.372;2023-11-18T09:43:20;99738.34;;;5.06;99.08
82160;BME280;71734;50.876;7.372;2023-11-18T09:45:49;99731.34;;;5.13;99.73
82160;BME280;71734;50.876;7.372;2023-11-18T09:48:18;99733.97;;;5.07;98.90
82160;BME280;71734;50.876;7.372;2023-11-18T09:50:51;99731.34;;;5.10;98.48
82160;BME280;71734;50.876;7.372;2023-11-18T09:53:19;99733.94;;;5.25;98.11
82160;BME280;71734;50.876;7.372;2023-11-18T09:55:49;99734.81;;;5.18;97.74
82160;BME280;71734;50.876;7.372;2023-11-18T09:58:21;99732.19;;;5.17;98.51
82160;BME280;71734;50.876;7.372;2023-11-18T10:00:56;99729.59;;;5.12;98.29
82160;BME280;71734;50.876;7.372;2023-11-18T10:03:24;99727.84;;;5.08;98.81
82160;BME280;71734;50.876;7.372;2023-11-18T10:05:51;99725.22;;;5.06;99.07
82160;BME280;71734;50.876;7.372;2023-11-18T10:08:20;99718.19;;;5.10;98.61
82160;BME280;71734;50.876;7.372;2023-11-18T10:10:51;99710.31;;;5.10;97.42
82160;BME280;71734;50.876;7.372;2023-11-18T10:13:31;99705.09;;;5.08;98.50
82160;BME280;71734;50.876;7.372;2023-11-18T10:16:00;99691.06;;;5.11;98.10
82160;BME280;71734;50.876;7.372;2023-11-18T10:18:27;99699.81;;;5.16;97.38
82160;BME280;71734;50.876;7.372;2023-11-18T10:20:53;99703.28;;;5.18;97.18
82160;BME280;71734;50.876;7.372;2023-11-18T10:23:22;99700.66;;;5.18;97.58
82160;BME280;71734;50.876;7.372;2023-11-18T10:25:54;99699.78;;;5.19;97.60
82160;BME280;71734;50.876;7.372;2023-11-18T10:28:23;99702.38;;;5.27;97.05
82160;BME280;71734;50.876;7.372;2023-11-18T10:30:51;99701.50;;;5.29;96.96
82160;BME280;71734;50.876;7.372;2023-11-18T10:33:17;99691.91;;;5.21;96.10
82160;BME280;71734;50.876;7.372;2023-11-18T10:35:50;99695.38;;;5.27;96.52
82160;BME280;71734;50.876;7.372;2023-11-18T10:38:18;99685.78;;;5.17;96.72
82160;BME280;71734;50.876;7.372;2023-11-18T10:40:45;99684.03;;;5.19;97.13
82160;BME280;71734;50.876;7.372;2023-11-18T10:43:11;99675.28;;;5.14;97.34
82160;BME280;71734;50.876;7.372;2023-11-18T10:45:40;99677.00;;;5.18;96.81
82160;BME280;71734;50.876;7.372;2023-11-18T10:48:08;99658.63;;;5.21;97.03
82160;BME280;71734;50.876;7.372;2023-11-18T10:50:38;99649.88;;;5.19;97.25
82160;BME280;71734;50.876;7.372;2023-11-18T10:53:05;99652.50;;;5.19;97.07
82160;BME280;71734;50.876;7.372;2023-11-18T10:55:36;99636.72;;;5.25;97.01
82160;BME280;71734;50.876;7.372;2023-11-18T10:58:03;99613.06;;;5.22;96.43
82160;BME280;71734;50.876;7.372;2023-11-18T11:00:49;99619.97;;;5.38;96.92
82160;BME280;71734;50.876;7.372;2023-11-18T11:03:18;99606.84;;;5.35;96.40
82160;BME280;71734;50.876;7.372;2023-11-18T11:05:45;99610.31;;;5.40;96.13
82160;BME280;71734;50.876;7.372;2023-11-18T11:08:13;99592.81;;;5.39;96.32
82160;BME280;71734;50.876;7.372;2023-11-18T11:10:41;99589.31;;;5.34;96.73
82160;BME280;71734;50.876;7.372;2023-11-18T11:13:08;99592.03;;;5.30;96.28
82160;BME280;71734;50.876;7.372;2023-11-18T11:15:41;99584.09;;;5.31;96.43
82160;BME280;71734;50.876;7.372;2023-11-18T11:18:21;99578.88;;;5.28;97.51
82160;BME280;71734;50.876;7.372;2023-11-18T11:20:57;99575.34;;;5.32;96.90
82160;BME280;71734;50.876;7.372;2023-11-18T11:23:38;99571.84;;;5.33;96.99
82160;BME280;71734;50.876;7.372;2023-11-18T11:26:20;99563.09;;;5.31;96.94
82160;BME280;71734;50.876;7.372;2023-11-18T11:29:00;99558.66;;;5.36;96.03
82160;BME280;71734;50.876;7.372;2023-11-18T11:31:32;99565.72;;;5.31;96.29
82160;BME280;71734;50.876;7.372;2023-11-18T11:34:06;99577.13;;;5.29;97.29
82160;BME280;71734;50.876;7.372;2023-11-18T11:36:37;99570.97;;;5.31;96.90
82160;BME280;71734;50.876;7.372;2023-11-18T11:39:07;99571.81;;;5.36;97.18
82160;BME280;71734;50.876;7.372;2023-11-18T11:41:43;99561.28;;;5.35;96.83
82160;BME280;71734;50.876;7.372;2023-11-18T11:44:12;99570.06;;;5.35;97.05
82160;BME280;71734;50.876;7.372;2023-11-18T11:46:39;99572.66;;;5.41;96.54
82160;BME280;71734;50.876;7.372;2023-11-18T11:49:10;99566.47;;;5.47;96.97
82160;BME280;71734;50.876;7.372;2023-11-18T11:51:46;99569.94;;;5.50;96.86
82160;BME280;71734;50.876;7.372;2023-11-18T11:54:18;99558.53;;;5.51;96.12
82160;BME280;71734;50.876;7.372;2023-11-18T11:56:48;99561.16;;;5.51;96.58
82160;BME280;71734;50.876;7.372;2023-11-18T11:59:34;99541.94;;;5.46;97.12
82160;BME280;71734;50.876;7.372;2023-11-18T12:02:02;99554.13;;;5.55;96.86
82160;BME280;71734;50.876;7.372;2023-11-18T12:04:36;99557.69;;;5.49;97.36
82160;BME280;71734;50.876;7.372;2023-11-18T12:07:05;99561.19;;;5.48;98.23
82160;BME280;71734;50.876;7.372;2023-11-18T12:09:31;99549.00;;;5.41;98.58
82160;BME280;71734;50.876;7.372;2023-11-18T12:12:16;99543.72;;;5.44;97.86
82160;BME280;71734;50.876;7.372;2023-11-18T12:14:50;99539.31;;;5.46;98.27
82160;BME280;71734;50.876;7.372;2023-11-18T12:17:18;99543.66;;;5.53;97.69
82160;BME280;71734;50.876;7.372;2023-11-18T12:19:49;99533.97;;;5.55;97.91
82160;BME280;71734;50.876;7.372;2023-11-18T12:22:16;99519.13;;;5.53;97.61
82160;BME280;71734;50.876;7.372;2023-11-18T12:28:12;99515.53;;;5.61;97.32
82160;BME280;71734;50.876;7.372;2023-11-18T12:30:42;99512.06;;;5.56;98.28
82160;BME280;71734;50.876;7.372;2023-11-18T12:34:03;99512.00;;;5.66;98.07
82160;BME280;71734;50.876;7.372;2023-11-18T12:36:59;99510.28;;;5.60;98.38
82160;BME280;71734;50.876;7.372;2023-11-18T12:40:14;99501.50;;;5.59;98.02
82160;BME280;71734;50.876;7.372;2023-11-18T12:42:59;99495.34;;;5.63;98.23
82160;BME280;71734;50.876;7.372;2023-11-18T12:46:06;99486.59;;;5.63;97.85
82160;BME280;71734;50.876;7.372;2023-11-18T12:48:43;99469.88;;;5.67;97.26
82160;BME280;71734;50.876;7.372;2023-11-18T12:51:12;99470.75;;;5.69;98.82
82160;BME280;71734;50.876;7.372;2023-11-18T12:53:47;99463.75;;;5.70;97.55
82160;BME280;71734;50.876;7.372;2023-11-18T12:56:14;99450.56;;;5.73;98.34
82160;BME280;71734;50.876;7.372;2023-11-18T12:58:42;99450.59;;;5.70;97.82
82160;BME280;71734;50.876;7.372;2023-11-18T13:01:08;99441.75;;;5.77;97.76
82160;BME280;71734;50.876;7.372;2023-11-18T13:03:39;99437.41;;;5.74;98.26
82160;BME280;71734;50.876;7.372;2023-11-18T13:06:07;99447.06;;;5.71;98.56
82160;BME280;71734;50.876;7.372;2023-11-18T13:08:34;99426.91;;;5.73;98.78
82160;BME280;71734;50.876;7.372;2023-11-18T13:11:03;99428.59;;;5.75;98.25
82160;BME280;71734;50.876;7.372;2023-11-18T13:13:30;99411.06;;;5.77;98.30
82160;BME280;71734;50.876;7.372;2023-11-18T13:15:58;99402.31;;;5.77;98.19
82160;BME280;71734;50.876;7.372;2023-11-18T13:18:24;99404.94;;;5.77;97.74
82160;BME280;71734;50.876;7.372;2023-11-18T13:20:55;99410.19;;;5.77;97.71
82160;BME280;71734;50.876;7.372;2023-11-18T13:23:24;99411.06;;;5.76;98.00